Time;durP1;ratioP1;P1;durP2;ratioP2;P2;SDS_P1;SDS_P2;PMS_P1;PMS_P2;Temp;Humidity;BMP_temperature;BMP_pressure;BME280_temperature;BME280_humidity;BME280_pressure;Samples;Min_cycle;Max_cycle;Signal;HPM_P1;HPM_P2
2022/10/02 00:02:42;;;;;;;4.32;1.20;;;18.60;99.90;;;;;;5042720;28;20500;-73
2022/10/02 00:05:27;;;;;;;5.07;1.70;;;18.60;99.90;;;;;;5054404;28;20033;-74
2022/10/02 00:08:13;;;;;;;4.95;1.02;;;18.60;99.90;;;;;;5042125;28;20064;-74
2022/10/02 00:10:47;;;;;;;3.40;1.40;;;18.60;99.90;;;;;;5042431;28;20040;-73
2022/10/02 00:13:24;;;;;;;3.67;1.00;;;18.60;99.90;;;;;;5044972;28;20056;-74
2022/10/02 00:15:52;;;;;;;3.53;0.82;;;18.60;99.90;;;;;;5069510;28;20127;-75
2022/10/02 00:18:25;;;;;;;5.90;1.00;;;18.80;99.90;;;;;;5056278;28;20123;-74
2022/10/02 00:21:24;;;;;;;5.45;1.20;;;19.00;99.90;;;;;;5061029;28;20119;-74
2022/10/02 00:24:14;;;;;;;3.00;1.00;;;19.00;99.90;;;;;;5037744;28;20029;-75
2022/10/02 00:26:57;;;;;;;3.10;0.70;;;18.90;99.90;;;;;;5059550;28;20488;-76
2022/10/02 00:29:32;;;;;;;3.92;0.63;;;19.00;99.90;;;;;;5060890;28;20121;-76
2022/10/02 00:32:36;;;;;;;2.33;0.43;;;19.00;99.90;;;;;;5060836;28;20049;-74
2022/10/02 00:35:30;;;;;;;3.60;0.73;;;19.20;99.90;;;;;;5046640;28;20048;-74
2022/10/02 00:38:11;;;;;;;5.13;0.80;;;19.10;99.90;;;;;;5062338;28;20033;-75
2022/10/02 00:41:00;;;;;;;4.35;0.60;;;19.10;99.90;;;;;;5047572;28;20060;-75
2022/10/02 00:43:36;;;;;;;4.63;0.90;;;19.00;99.90;;;;;;5082136;28;20060;-74
2022/10/02 00:46:11;;;;;;;4.30;0.93;;;19.00;99.90;;;;;;5063796;28;20777;-75
2022/10/02 00:49:07;;;;;;;1.65;0.65;;;19.10;99.90;;;;;;5064637;28;20033;-75
2022/10/02 00:51:44;;;;;;;3.75;0.82;;;19.20;99.90;;;;;;5041122;28;20408;-74
2022/10/02 00:54:20;;;;;;;1.35;0.45;;;19.20;99.90;;;;;;5044802;28;20102;-74
2022/10/02 00:56:48;;;;;;;2.60;0.55;;;19.50;99.90;;;;;;5053966;28;20064;-74
2022/10/02 00:59:31;;;;;;;4.40;0.80;;;19.60;99.90;;;;;;5040575;28;20029;-74
2022/10/02 01:02:18;;;;;;;5.47;0.63;;;19.70;99.90;;;;;;5075088;28;20037;-76
2022/10/02 01:04:46;;;;;;;3.92;0.90;;;19.60;99.90;;;;;;5038148;28;20080;-75
2022/10/02 01:07:14;;;;;;;4.80;0.60;;;19.70;99.90;;;;;;5055389;28;20033;-75
2022/10/02 01:09:41;;;;;;;3.53;0.63;;;19.70;99.90;;;;;;5065543;28;20024;-75
2022/10/02 01:12:07;;;;;;;3.65;0.88;;;19.60;99.90;;;;;;5062127;28;20093;-75
2022/10/02 01:14:37;;;;;;;3.97;0.60;;;19.60;99.90;;;;;;5065025;28;20123;-75
2022/10/02 01:17:17;;;;;;;5.57;0.98;;;19.50;99.90;;;;;;5060386;28;20133;-74
2022/10/02 01:19:43;;;;;;;6.47;1.00;;;19.30;99.90;;;;;;5060182;28;20197;-74
2022/10/02 01:22:20;;;;;;;2.70;0.70;;;19.20;99.90;;;;;;5058135;28;20685;-75
2022/10/02 01:24:47;;;;;;;2.67;0.88;;;19.30;99.90;;;;;;5062336;28;20044;-75
2022/10/02 01:27:13;;;;;;;2.78;0.63;;;19.20;99.90;;;;;;5059062;28;20420;-74
2022/10/02 01:29:41;;;;;;;9.10;0.90;;;19.30;99.90;;;;;;5062029;28;20044;-76
2022/10/02 01:32:07;;;;;;;2.65;0.70;;;19.30;99.90;;;;;;5060441;28;20129;-74
2022/10/02 01:34:33;;;;;;;2.72;0.60;;;19.30;99.90;;;;;;5060847;28;20036;-74
2022/10/02 01:36:59;;;;;;;3.58;0.80;;;19.40;99.90;;;;;;5057930;28;20480;-74
2022/10/02 01:39:25;;;;;;;2.22;0.40;;;19.40;99.90;;;;;;5057633;28;20571;-75
2022/10/02 01:41:54;;;;;;;3.55;1.00;;;19.40;99.90;;;;;;5044039;28;20028;-76
2022/10/02 01:44:21;;;;;;;2.78;0.65;;;19.60;99.90;;;;;;5065562;28;20041;-75
2022/10/02 01:47:07;;;;;;;3.10;0.50;;;19.50;99.90;;;;;;5059668;28;20102;-74
2022/10/02 01:49:49;;;;;;;3.78;0.60;;;19.50;99.90;;;;;;5052180;28;20040;-75
2022/10/02 01:52:33;;;;;;;4.15;0.80;;;19.50;99.90;;;;;;5054826;28;20043;-75
2022/10/02 01:55:13;;;;;;;3.13;0.90;;;19.60;99.90;;;;;;5061086;28;20048;-75
2022/10/02 01:57:55;;;;;;;1.73;0.60;;;19.60;99.90;;;;;;5049988;28;20507;-75
2022/10/02 02:00:24;;;;;;;2.13;0.60;;;19.60;99.90;;;;;;5057492;28;20423;-75
2022/10/02 02:03:16;;;;;;;3.80;0.70;;;19.60;99.90;;;;;;5063729;28;20487;-75
2022/10/02 02:06:22;;;;;;;2.80;0.57;;;19.50;99.90;;;;;;5061763;28;20104;-73
2022/10/02 02:08:52;;;;;;;3.85;0.90;;;19.40;99.90;;;;;;5036006;28;20152;-74
2022/10/02 02:11:20;;;;;;;3.05;0.40;;;19.40;99.90;;;;;;5054105;28;20056;-74
2022/10/02 02:14:00;;;;;;;3.25;0.80;;;19.40;99.90;;;;;;5056629;28;20039;-74
2022/10/02 02:16:48;;;;;;;2.60;0.82;;;19.40;99.90;;;;;;5049732;28;20082;-75
2022/10/02 02:19:47;;;;;;;2.80;0.52;;;19.50;99.90;;;;;;5060749;28;20098;-75
2022/10/02 02:22:37;;;;;;;5.22;0.80;;;19.40;99.90;;;;;;5059220;28;20082;-74
2022/10/02 02:25:26;;;;;;;4.10;0.65;;;19.40;99.90;;;;;;5056687;28;20039;-75
2022/10/02 02:27:59;;;;;;;2.17;0.88;;;19.60;99.90;;;;;;5057413;28;20144;-76
2022/10/02 02:30:25;;;;;;;;;;;19.50;99.90;;;;;;5061496;28;20029;-74
2022/10/02 02:33:09;;;;;;;3.15;0.60;;;19.60;99.90;;;;;;5061743;28;19982;-75
2022/10/02 02:35:42;;;;;;;1.20;0.40;;;19.60;99.90;;;;;;5062024;28;20037;-74
2022/10/02 02:38:14;;;;;;;3.33;0.90;;;19.60;99.90;;;;;;5073323;28;20075;-74
2022/10/02 02:40:43;;;;;;;4.40;0.40;;;19.60;99.90;;;;;;5064902;28;20068;-74
2022/10/02 02:43:38;;;;;;;3.85;0.60;;;19.60;99.90;;;;;;5076037;28;20039;-75
2022/10/02 02:46:14;;;;;;;1.35;0.30;;;19.60;99.90;;;;;;5061302;28;20090;-74
2022/10/02 02:48:46;;;;;;;1.83;0.55;;;19.50;99.90;;;;;;5062839;28;20028;-74
2022/10/02 02:51:15;;;;;;;;;;;19.50;99.90;;;;;;5057770;28;20045;-73
2022/10/02 02:54:12;;;;;;;2.85;0.57;;;19.50;99.90;;;;;;5057938;28;20007;-75
2022/10/02 02:56:40;;;;;;;2.42;0.40;;;19.50;99.90;;;;;;5054427;28;20037;-74
2022/10/02 02:59:13;;;;;;;3.00;0.70;;;19.60;99.90;;;;;;5059485;28;20049;-75
2022/10/02 03:01:40;;;;;;;3.22;0.65;;;19.60;99.90;;;;;;5062095;28;20090;-73
2022/10/02 03:04:16;;;;;;;7.53;0.85;;;19.50;99.90;;;;;;5058265;28;20075;-75
2022/10/02 03:06:48;;;;;;;3.83;0.60;;;19.50;99.90;;;;;;5056512;28;20029;-75
2022/10/02 03:09:17;;;;;;;2.42;0.55;;;19.50;99.90;;;;;;5058221;28;20032;-75
2022/10/02 03:11:53;;;;;;;2.97;0.60;;;19.50;99.90;;;;;;5058067;28;20037;-74
2022/10/02 03:14:59;;;;;;;4.05;0.80;;;19.50;99.90;;;;;;5060292;28;20120;-74
2022/10/02 03:17:53;;;;;;;3.55;0.70;;;19.50;99.90;;;;;;5059821;28;20102;-75
2022/10/02 03:20:48;;;;;;;2.13;0.85;;;19.50;99.90;;;;;;5054542;28;20113;-74
2022/10/02 03:23:26;;;;;;;2.13;0.47;;;19.50;99.90;;;;;;5073259;28;20179;-75
2022/10/02 03:25:58;;;;;;;3.85;0.70;;;19.60;99.90;;;;;;5074598;28;20048;-74
2022/10/02 03:28:37;;;;;;;1.92;0.40;;;19.50;99.90;;;;;;5064693;28;20044;-75
2022/10/02 03:31:03;;;;;;;2.28;0.55;;;19.50;99.90;;;;;;5062219;28;20043;-75
2022/10/02 03:33:31;;;;;;;2.50;0.63;;;19.50;99.90;;;;;;5067041;28;20496;-74
2022/10/02 03:35:57;;;;;;;1.75;0.47;;;19.50;99.90;;;;;;5060639;28;20040;-74
2022/10/02 03:38:25;;;;;;;1.98;0.40;;;19.50;99.90;;;;;;5066946;28;20052;-74
2022/10/02 03:40:56;;;;;;;2.33;0.40;;;19.60;99.90;;;;;;5075321;28;20055;-75
2022/10/02 03:43:26;;;;;;;2.38;0.68;;;19.60;99.90;;;;;;5062651;28;20044;-75
2022/10/02 03:45:52;;;;;;;3.88;0.52;;;19.60;99.90;;;;;;5063922;28;20037;-74
2022/10/02 03:48:18;;;;;;;2.22;0.52;;;19.70;99.90;;;;;;5059470;28;20048;-75
2022/10/02 03:50:44;;;;;;;1.73;0.40;;;19.80;99.90;;;;;;5061774;28;20116;-75
2022/10/02 03:53:20;;;;;;;1.17;0.30;;;19.80;99.90;;;;;;5066250;28;20496;-74
2022/10/02 03:56:01;;;;;;;1.65;0.30;;;19.80;99.90;;;;;;5057519;28;20037;-76
2022/10/02 03:58:28;;;;;;;5.25;0.65;;;19.90;99.90;;;;;;5061069;28;20045;-75
2022/10/02 04:01:03;;;;;;;2.17;0.43;;;20.00;99.90;;;;;;5067575;28;20045;-75
2022/10/02 04:03:46;;;;;;;2.83;0.85;;;20.20;99.90;;;;;;5060615;28;20060;-75
2022/10/02 04:06:18;;;;;;;1.80;0.70;;;20.40;99.90;;;;;;5060402;28;20391;-75
2022/10/02 04:09:17;;;;;;;4.53;0.60;;;20.40;99.90;;;;;;5064927;28;20094;-75
2022/10/02 04:11:52;;;;;;;1.55;0.43;;;20.40;99.90;;;;;;5014183;28;20052;-75
2022/10/02 04:14:29;;;;;;;2.17;0.40;;;20.50;99.90;;;;;;5042463;28;20052;-75
2022/10/02 04:17:19;;;;;;;0.85;0.40;;;20.50;99.90;;;;;;5073761;28;20049;-74
2022/10/02 04:19:50;;;;;;;1.77;0.57;;;20.40;99.90;;;;;;5044820;28;20033;-76
2022/10/02 04:22:31;;;;;;;2.60;0.70;;;20.40;99.90;;;;;;5045654;28;20045;-75
2022/10/02 04:25:14;;;;;;;2.97;0.90;;;20.40;99.90;;;;;;5056908;28;20097;-74
2022/10/02 04:28:07;;;;;;;1.25;0.45;;;20.40;99.90;;;;;;5057566;28;20041;-75
2022/10/02 04:30:32;;;;;;;2.33;0.90;;;20.30;99.90;;;;;;5067504;28;20037;-74
2022/10/02 04:33:13;;;;;;;2.13;0.60;;;20.40;99.90;;;;;;5059817;28;20111;-76
2022/10/02 04:36:16;;;;;;;2.47;0.85;;;20.30;99.90;;;;;;5076835;28;20112;-75
2022/10/02 04:39:08;;;;;;;2.58;0.60;;;20.30;99.90;;;;;;5030822;28;20056;-75
2022/10/02 04:41:52;;;;;;;2.22;0.40;;;20.40;99.90;;;;;;5040291;28;20064;-74
2022/10/02 04:44:28;;;;;;;3.80;0.93;;;20.40;99.90;;;;;;5046152;28;20170;-74
2022/10/02 04:47:12;;;;;;;2.45;0.85;;;20.50;99.90;;;;;;5066501;28;20083;-75
2022/10/02 04:50:18;;;;;;;2.10;0.40;;;20.50;99.90;;;;;;5045877;28;20103;-75
2022/10/02 04:52:59;;;;;;;1.67;0.50;;;20.70;99.60;;;;;;5065859;28;20029;-73
2022/10/02 04:55:34;;;;;;;3.65;0.40;;;20.60;99.30;;;;;;5061808;28;20059;-75
2022/10/02 04:58:30;;;;;;;1.77;0.50;;;20.60;99.60;;;;;;5060717;28;20067;-76
2022/10/02 05:01:14;;;;;;;3.05;0.60;;;20.50;99.50;;;;;;5038967;28;20056;-76
2022/10/02 05:04:05;;;;;;;3.28;0.60;;;20.70;99.50;;;;;;5020943;28;20037;-75
2022/10/02 05:06:40;;;;;;;2.83;0.60;;;20.60;99.60;;;;;;5050070;28;20071;-76
2022/10/02 05:09:28;;;;;;;5.43;0.95;;;20.50;99.60;;;;;;5056722;28;20337;-75
2022/10/02 05:12:20;;;;;;;1.75;0.63;;;20.60;99.20;;;;;;5061501;28;20101;-74
2022/10/02 05:14:52;;;;;;;6.13;0.80;;;20.60;99.10;;;;;;5039452;28;20079;-75
2022/10/02 05:17:36;;;;;;;2.15;0.80;;;20.60;98.10;;;;;;5050506;28;20033;-75
2022/10/02 05:20:33;;;;;;;2.83;0.70;;;20.70;97.90;;;;;;5071390;28;20110;-75
2022/10/02 05:23:30;;;;;;;2.28;0.73;;;20.70;97.80;;;;;;5060339;28;20037;-75
2022/10/02 05:26:08;;;;;;;3.05;0.80;;;20.70;97.90;;;;;;5039868;28;20052;-76
2022/10/02 05:29:04;;;;;;;3.45;1.00;;;20.80;98.00;;;;;;5050669;28;20033;-75
2022/10/02 05:31:40;;;;;;;;;;;20.70;98.30;;;;;;5040288;28;20036;-75
2022/10/02 05:34:16;;;;;;;2.55;0.70;;;20.70;98.10;;;;;;5054293;28;20012;-74
2022/10/02 05:37:03;;;;;;;3.08;0.75;;;20.70;98.10;;;;;;5053468;28;20063;-76
2022/10/02 05:39:52;;;;;;;1.83;0.40;;;20.60;98.00;;;;;;5048304;28;20046;-76
2022/10/02 05:42:33;;;;;;;3.78;0.60;;;20.70;97.80;;;;;;5072007;28;20040;-75
2022/10/02 05:45:10;;;;;;;4.13;0.77;;;20.70;97.80;;;;;;5058855;28;20044;-76
2022/10/02 05:47:44;;;;;;;2.67;0.68;;;20.70;97.70;;;;;;5069752;28;20128;-75
2022/10/02 05:50:24;;;;;;;3.45;0.47;;;20.70;97.50;;;;;;5072013;28;20062;-75
2022/10/02 05:53:01;;;;;;;2.45;0.63;;;20.70;97.60;;;;;;5056632;28;20040;-75
2022/10/02 05:55:30;;;;;;;2.20;0.57;;;20.60;97.80;;;;;;5061113;28;20040;-75
2022/10/02 05:58:26;;;;;;;1.92;0.70;;;20.50;97.70;;;;;;5062284;28;20040;-76
2022/10/02 06:01:29;;;;;;;4.30;0.55;;;20.60;97.30;;;;;;5052548;28;20040;-75
2022/10/02 06:04:02;;;;;;;2.05;0.70;;;20.70;97.10;;;;;;5002865;28;20700;-76
2022/10/02 06:06:50;;;;;;;3.47;0.75;;;20.70;96.90;;;;;;5064654;28;20116;-76
2022/10/02 06:09:22;;;;;;;3.42;0.52;;;20.90;96.80;;;;;;5057413;28;20044;-75
2022/10/02 06:11:58;;;;;;;1.88;0.65;;;21.00;96.50;;;;;;5058796;28;20029;-76
2022/10/02 06:14:34;;;;;;;2.67;0.70;;;21.00;96.50;;;;;;5060033;28;20037;-76
2022/10/02 06:17:11;;;;;;;5.28;0.77;;;20.90;96.50;;;;;;5062744;28;20024;-75
2022/10/02 06:19:51;;;;;;;2.65;0.57;;;21.00;96.40;;;;;;5057024;28;20047;-75
2022/10/02 06:22:27;;;;;;;2.42;0.70;;;21.00;96.30;;;;;;5059037;28;20198;-75
2022/10/02 06:25:29;;;;;;;2.58;0.50;;;21.00;96.20;;;;;;5057356;28;20032;-76
2022/10/02 06:28:13;;;;;;;4.65;0.73;;;21.00;96.00;;;;;;5039255;28;20124;-76
2022/10/02 06:30:45;;;;;;;1.30;0.50;;;21.10;96.00;;;;;;5059559;28;20091;-75
2022/10/02 06:33:22;;;;;;;2.25;0.50;;;21.20;95.80;;;;;;5034960;28;20036;-76
2022/10/02 06:36:02;;;;;;;5.10;1.02;;;21.30;96.00;;;;;;5041923;28;20518;-75
2022/10/02 06:39:09;;;;;;;2.72;0.60;;;21.30;95.80;;;;;;5048828;28;20056;-74
2022/10/02 06:41:54;;;;;;;1.70;0.47;;;21.40;95.60;;;;;;5042809;28;20495;-74
2022/10/02 06:44:48;;;;;;;1.90;0.70;;;21.40;95.70;;;;;;5069762;28;20037;-73
2022/10/02 06:47:21;;;;;;;1.65;0.52;;;21.50;95.50;;;;;;5059015;28;20369;-74
2022/10/02 06:49:58;;;;;;;1.40;0.57;;;21.60;95.30;;;;;;5056503;28;20033;-75
2022/10/02 06:52:48;;;;;;;1.90;0.50;;;21.70;95.40;;;;;;5066313;28;20068;-74
2022/10/02 06:55:34;;;;;;;2.47;0.70;;;21.70;95.30;;;;;;5040715;28;20406;-74
2022/10/02 06:58:08;;;;;;;1.80;0.60;;;21.80;95.30;;;;;;5061906;28;20033;-75
2022/10/02 07:01:02;;;;;;;4.55;1.00;;;21.80;95.40;;;;;;5072558;28;20044;-73
2022/10/02 07:03:45;;;;;;;4.28;1.15;;;21.80;95.70;;;;;;5064101;28;20090;-74
2022/10/02 07:06:38;;;;;;;3.10;1.10;;;21.70;97.90;;;;;;5060155;28;20047;-74
2022/10/02 07:09:03;;;;;;;4.18;1.48;;;21.10;99.00;;;;;;5053061;28;20060;-73
2022/10/02 07:11:47;;;;;;;5.32;1.52;;;20.80;99.90;;;;;;5075378;28;20041;-74
2022/10/02 07:14:19;;;;;;;8.85;2.22;;;20.60;99.90;;;;;;5041244;28;20529;-74
2022/10/02 07:16:46;;;;;;;5.22;1.85;;;20.40;99.90;;;;;;5047425;28;20055;-74
2022/10/02 07:20:03;;;;;;;11.38;4.45;;;20.30;99.90;;;;;;5054460;28;20077;-75
2022/10/02 07:23:01;;;;;;;5.07;1.63;;;20.20;99.90;;;;;;5017558;28;20053;-74
2022/10/02 07:26:01;;;;;;;6.32;1.67;;;20.20;99.90;;;;;;5029920;28;20041;-74
2022/10/02 07:28:38;;;;;;;6.45;1.73;;;20.20;99.90;;;;;;5040013;28;20383;-74
2022/10/02 07:31:10;;;;;;;4.40;0.90;;;20.30;99.90;;;;;;5038350;28;20044;-73
2022/10/02 07:34:08;;;;;;;3.78;1.00;;;20.50;99.90;;;;;;5047492;28;20036;-75
2022/10/02 07:36:36;;;;;;;2.95;0.70;;;20.80;99.90;;;;;;5038407;28;20045;-74
2022/10/02 07:39:13;;;;;;;2.53;0.98;;;21.00;99.00;;;;;;5042632;28;20030;-74
2022/10/02 07:42:04;;;;;;;3.05;0.93;;;21.50;98.30;;;;;;5040788;28;20029;-74
2022/10/02 07:44:42;;;;;;;3.90;0.85;;;21.80;97.90;;;;;;5035311;28;20034;-74
2022/10/02 07:47:43;;;;;;;2.42;0.70;;;21.60;97.60;;;;;;5053361;28;20067;-74
2022/10/02 07:50:31;;;;;;;4.60;1.10;;;21.40;97.80;;;;;;5063032;28;20496;-74
2022/10/02 07:53:22;;;;;;;3.47;0.85;;;21.30;97.90;;;;;;5061473;28;20037;-75
2022/10/02 07:55:52;;;;;;;4.80;0.88;;;21.30;98.00;;;;;;5042642;28;20025;-74
2022/10/02 07:58:27;;;;;;;3.03;0.90;;;21.50;98.20;;;;;;5041166;28;20107;-74
2022/10/02 08:01:02;;;;;;;3.17;0.90;;;21.50;98.20;;;;;;5041579;28;20130;-75
2022/10/02 08:03:48;;;;;;;3.67;0.88;;;21.50;98.20;;;;;;5054580;28;20041;-75
2022/10/02 08:06:16;;;;;;;4.40;0.90;;;21.60;98.60;;;;;;5058200;28;20036;-74
2022/10/02 08:08:53;;;;;;;4.13;0.70;;;21.60;98.80;;;;;;5039268;28;20029;-73
2022/10/02 08:11:52;;;;;;;3.67;0.77;;;21.70;99.50;;;;;;5056682;28;20477;-74
2022/10/02 08:14:27;;;;;;;4.88;1.13;;;21.60;99.90;;;;;;5074136;28;20119;-74
2022/10/02 08:16:58;;;;;;;4.82;0.95;;;21.60;99.90;;;;;;5071097;28;20041;-74
2022/10/02 08:19:33;;;;;;;3.13;1.02;;;22.80;99.90;;;;;;5049456;28;20052;-74
2022/10/02 08:22:40;;;;;;;3.70;1.25;;;24.00;99.90;;;;;;5073811;28;20079;-76
2022/10/02 08:25:25;;;;;;;5.40;1.33;;;24.20;99.90;;;;;;5060261;28;20029;-75
2022/10/02 08:28:03;;;;;;;3.72;1.52;;;24.70;99.90;;;;;;5075560;28;20041;-75
2022/10/02 08:30:29;;;;;;;4.30;1.02;;;24.70;99.90;;;;;;5053585;28;20132;-75
2022/10/02 08:32:55;;;;;;;2.92;1.08;;;24.40;99.70;;;;;;5061204;28;20690;-75
2022/10/02 08:35:34;;;;;;;4.22;1.42;;;24.80;99.80;;;;;;5050795;28;20033;-75
2022/10/02 08:38:09;;;;;;;3.78;1.33;;;24.70;99.70;;;;;;5049248;28;20114;-75
2022/10/02 08:41:03;;;;;;;3.40;1.40;;;25.00;99.50;;;;;;5058032;28;20041;-76
2022/10/02 08:43:37;;;;;;;2.75;1.15;;;25.20;99.10;;;;;;5046130;28;20104;-75
2022/10/02 08:46:57;;;;;;;4.03;1.27;;;25.70;98.90;;;;;;5035707;28;20048;-75
2022/10/02 08:49:47;;;;;;;6.55;2.13;;;26.50;98.20;;;;;;5050761;28;20045;-76
2022/10/02 08:52:32;;;;;;;3.65;1.50;;;27.20;97.20;;;;;;4971297;28;1860761;-76
2022/10/02 08:55:06;;;;;;;5.93;1.48;;;27.50;96.50;;;;;;5061134;28;20037;-75
2022/10/02 08:58:02;;;;;;;4.13;1.88;;;26.60;96.20;;;;;;5043594;28;20033;-75
2022/10/02 09:00:54;;;;;;;5.82;1.90;;;26.60;96.70;;;;;;5039851;28;20060;-75
2022/10/02 09:04:09;;;;;;;4.55;1.38;;;26.50;96.60;;;;;;5039224;28;20043;-75
2022/10/02 09:06:59;;;;;;;6.90;1.23;;;26.50;96.40;;;;;;5040464;28;20052;-75
2022/10/02 09:09:52;;;;;;;3.42;1.30;;;27.50;95.50;;;;;;5042065;28;20036;-75
2022/10/02 09:12:57;;;;;;;3.70;1.85;;;27.00;95.00;;;;;;5037787;28;20690;-75
2022/10/02 09:15:45;;;;;;;2.65;1.40;;;26.30;94.70;;;;;;5040147;28;20049;-75
2022/10/02 09:18:17;;;;;;;3.85;1.20;;;27.00;94.20;;;;;;5037669;28;21050;-75
2022/10/02 09:20:53;;;;;;;4.25;1.27;;;26.70;94.30;;;;;;5064057;28;20063;-74
2022/10/02 09:23:41;;;;;;;2.72;1.33;;;27.00;94.40;;;;;;5077713;28;20152;-76
2022/10/02 09:26:50;;;;;;;5.10;1.63;;;27.40;94.20;;;;;;5056917;28;20029;-75
2022/10/02 09:30:03;;;;;;;4.13;1.48;;;26.60;95.00;;;;;;5077509;28;20123;-75
2022/10/02 09:33:14;;;;;;;8.32;2.25;;;26.20;96.70;;;;;;5004558;28;20458;-75
2022/10/02 09:36:00;;;;;;;5.22;2.03;;;25.80;98.00;;;;;;5006304;28;20030;-74
2022/10/02 09:39:00;;;;;;;4.70;1.27;;;24.80;99.90;;;;;;5057403;28;20021;-74
2022/10/02 09:42:07;;;;;;;5.30;1.88;;;24.70;99.90;;;;;;5056094;28;20039;-74
2022/10/02 09:44:45;;;;;;;6.63;1.38;;;24.70;99.90;;;;;;5056673;28;20037;-76
2022/10/02 09:47:35;;;;;;;5.82;1.70;;;24.30;99.90;;;;;;5070598;28;20388;-75
2022/10/02 09:50:10;;;;;;;;;;;24.10;99.90;;;;;;5059725;28;20067;-76
2022/10/02 09:52:55;;;;;;;6.28;1.45;;;24.50;99.90;;;;;;5054062;28;20368;-76
2022/10/02 09:55:50;;;;;;;4.97;1.60;;;24.50;99.90;;;;;;5059865;28;20033;-75
2022/10/02 09:58:35;;;;;;;5.13;2.28;;;25.00;99.90;;;;;;5049499;28;20044;-76
2022/10/02 10:01:10;;;;;;;5.93;1.30;;;25.40;99.90;;;;;;5074941;28;20742;-75
2022/10/02 10:03:59;;;;;;;4.15;1.30;;;25.10;99.90;;;;;;5051288;28;20040;-76
2022/10/02 10:06:34;;;;;;;5.85;1.30;;;25.20;99.90;;;;;;5062832;28;20041;-74
2022/10/02 10:09:39;;;;;;;4.63;1.15;;;25.20;99.90;;;;;;5061711;28;20033;-75
2022/10/02 10:12:29;;;;;;;5.75;2.47;;;25.00;99.90;;;;;;5055397;28;20051;-76
2022/10/02 10:15:32;;;;;;;3.33;1.17;;;25.60;99.90;;;;;;5073083;28;20040;-76
2022/10/02 10:18:02;;;;;;;5.30;1.42;;;25.60;99.90;;;;;;5039657;28;20515;-74
2022/10/02 10:20:57;;;;;;;7.47;1.30;;;25.20;99.90;;;;;;5043584;28;20047;-74
2022/10/02 10:23:51;;;;;;;3.75;1.27;;;25.40;99.90;;;;;;5037952;28;21069;-77
2022/10/02 10:26:39;;;;;;;3.83;1.45;;;25.70;99.90;;;;;;5037111;28;20052;-75
2022/10/02 10:29:18;;;;;;;5.05;1.65;;;26.30;99.90;;;;;;5038649;28;20093;-74
2022/10/02 10:32:18;;;;;;;4.55;1.27;;;26.70;99.90;;;;;;5041703;28;20043;-74
2022/10/02 10:34:53;;;;;;;3.85;1.33;;;26.10;99.90;;;;;;5034794;28;20603;-75
2022/10/02 10:41:04;;;;;;;6.60;1.30;;;26.40;99.90;;;;;;5050550;28;20130;-77
2022/10/02 10:43:50;;;;;;;6.32;1.77;;;26.40;99.90;;;;;;5051495;28;20045;-76
2022/10/02 10:46:33;;;;;;;3.83;1.02;;;26.50;99.90;;;;;;5057106;28;20037;-74
2022/10/02 10:49:38;;;;;;;6.05;2.05;;;27.10;99.90;;;;;;5075005;28;20029;-75
2022/10/02 10:52:33;;;;;;;3.10;1.17;;;27.80;99.90;;;;;;5040968;28;20550;-75
2022/10/02 10:55:28;;;;;;;5.88;1.42;;;27.70;99.90;;;;;;5049945;28;20496;-75
2022/10/02 10:58:13;;;;;;;6.93;1.63;;;27.80;99.90;;;;;;5056275;28;20502;-74
2022/10/02 11:01:06;;;;;;;6.45;1.40;;;27.60;99.90;;;;;;5063082;28;20060;-75
2022/10/02 11:03:57;;;;;;;6.22;1.65;;;28.10;99.90;;;;;;5071131;28;20688;-76
2022/10/02 11:07:08;;;;;;;6.70;1.75;;;28.30;99.90;;;;;;5056653;28;20047;-75
2022/10/02 11:09:53;;;;;;;4.97;1.85;;;28.30;99.90;;;;;;5051243;28;20033;-74
2022/10/02 11:12:56;;;;;;;5.20;1.45;;;28.60;99.90;;;;;;5073224;28;20206;-75
2022/10/02 11:15:53;;;;;;;3.35;1.85;;;28.20;99.90;;;;;;5071067;28;20056;-75
2022/10/02 11:18:58;;;;;;;5.97;1.63;;;27.80;99.90;;;;;;5070074;28;20040;-74
2022/10/02 11:21:44;;;;;;;6.38;3.10;;;28.00;99.90;;;;;;5031014;28;20123;-76
2022/10/02 11:24:57;;;;;;;4.93;1.58;;;27.50;99.90;;;;;;5055137;28;20056;-76
2022/10/02 11:27:56;;;;;;;6.00;1.55;;;28.00;99.90;;;;;;5030693;28;20060;-75
2022/10/02 11:30:48;;;;;;;5.18;1.88;;;28.10;99.90;;;;;;5038872;28;20499;-75
2022/10/02 11:33:19;;;;;;;4.57;1.75;;;28.00;99.90;;;;;;5055143;28;20049;-76
2022/10/02 11:36:09;;;;;;;4.25;1.50;;;27.60;99.90;;;;;;5039418;28;20082;-75
2022/10/02 11:38:38;;;;;;;;;;;27.60;99.90;;;;;;5033879;28;20116;-74
2022/10/02 11:41:44;;;;;;;4.63;1.83;;;27.60;99.90;;;;;;5053034;28;19924;-74
2022/10/02 11:45:06;;;;;;;4.70;2.40;;;27.90;99.90;;;;;;5059195;28;20097;-75
2022/10/02 11:47:41;;;;;;;7.13;1.98;;;27.20;99.90;;;;;;5022772;28;20121;-73
2022/10/02 11:50:27;;;;;;;5.35;1.65;;;27.40;99.90;;;;;;5048458;28;20504;-75
2022/10/02 11:53:30;;;;;;;5.85;1.77;;;27.10;99.90;;;;;;5055554;28;20518;-76
2022/10/02 11:55:59;;;;;;;11.73;1.63;;;27.00;99.90;;;;;;5058758;28;20179;-76
2022/10/02 11:58:49;;;;;;;7.50;1.95;;;26.90;99.90;;;;;;5040349;28;20039;-75
2022/10/02 12:01:21;;;;;;;;;;;26.50;99.90;;;;;;5043245;28;20813;-75
2022/10/02 12:03:51;;;;;;;5.13;1.73;;;26.30;99.90;;;;;;5055704;28;19916;-75
2022/10/02 12:06:35;;;;;;;4.78;1.60;;;26.90;99.90;;;;;;5061356;28;20056;-75
2022/10/02 12:09:34;;;;;;;5.93;1.73;;;27.40;99.90;;;;;;5063839;28;20064;-75
2022/10/02 12:12:12;;;;;;;4.25;1.67;;;27.10;99.90;;;;;;5057489;28;20053;-76
2022/10/02 12:15:09;;;;;;;6.70;2.42;;;26.70;99.90;;;;;;5068945;28;20028;-75
2022/10/02 12:17:55;;;;;;;7.50;1.63;;;26.80;99.90;;;;;;5056072;28;20040;-75
2022/10/02 12:26:57;;;;;;;6.80;2.05;;;26.50;99.90;;;;;;5064251;28;20115;-75
2022/10/02 12:29:47;;;;;;;9.75;1.95;;;27.00;99.90;;;;;;5073275;28;20037;-75
2022/10/02 12:32:48;;;;;;;3.17;1.55;;;27.10;99.90;;;;;;5075026;28;20407;-74
2022/10/02 12:35:45;;;;;;;6.32;1.95;;;26.30;99.90;;;;;;5061056;28;20044;-75
2022/10/02 12:38:43;;;;;;;6.93;2.00;;;27.30;99.90;;;;;;5066521;28;20055;-74
2022/10/02 12:41:32;;;;;;;6.93;1.80;;;28.30;99.90;;;;;;5058441;28;20060;-75
2022/10/02 12:44:15;;;;;;;4.15;2.00;;;28.00;99.90;;;;;;5042772;28;20045;-74
2022/10/02 12:47:12;;;;;;;4.43;1.20;;;27.50;99.90;;;;;;5058534;28;20052;-74
2022/10/02 12:50:07;;;;;;;6.85;2.72;;;27.00;99.90;;;;;;5055656;28;20526;-75
2022/10/02 12:53:05;;;;;;;5.57;1.42;;;26.80;99.90;;;;;;5061183;28;20063;-75
2022/10/02 12:55:53;;;;;;;5.80;1.70;;;27.30;99.90;;;;;;5055044;28;20566;-74
2022/10/02 12:58:33;;;;;;;4.47;1.65;;;27.10;99.90;;;;;;5055160;28;20033;-75
2022/10/02 13:01:30;;;;;;;2.35;1.23;;;27.20;99.90;;;;;;5055612;28;20509;-75
2022/10/02 13:04:19;;;;;;;6.40;1.75;;;28.50;99.60;;;;;;5062229;28;20041;-76
2022/10/02 13:07:15;;;;;;;4.82;1.65;;;28.10;99.20;;;;;;5025140;28;20108;-75
2022/10/02 13:10:02;;;;;;;4.00;1.98;;;28.60;98.90;;;;;;5041389;28;20040;-75
2022/10/02 13:12:49;;;;;;;6.32;2.30;;;28.30;98.80;;;;;;5041751;28;20037;-73
2022/10/02 13:15:54;;;;;;;4.45;1.52;;;28.10;98.80;;;;;;5060154;28;20028;-75
2022/10/02 13:18:46;;;;;;;3.10;1.30;;;28.10;98.40;;;;;;5003274;28;20037;-76
2022/10/02 13:21:49;;;;;;;7.03;2.45;;;28.50;97.60;;;;;;5061460;28;20126;-76
2022/10/02 13:24:27;;;;;;;4.22;1.63;;;28.10;97.50;;;;;;5062256;28;20491;-76
2022/10/02 13:26:52;;;;;;;;;;;28.80;96.90;;;;;;5074506;28;20040;-75
2022/10/02 13:29:21;;;;;;;5.47;1.42;;;29.30;96.60;;;;;;5055894;28;19928;-74
2022/10/02 13:32:07;;;;;;;3.15;1.25;;;28.10;96.40;;;;;;5048772;28;20037;-76
2022/10/02 13:34:57;;;;;;;5.72;1.65;;;28.10;96.30;;;;;;5044026;28;20037;-74
2022/10/02 13:37:22;;;;;;;;;;;28.40;96.00;;;;;;5059085;28;20111;-75
2022/10/02 13:40:16;;;;;;;4.70;1.73;;;28.90;95.40;;;;;;5060333;28;20013;-75
2022/10/02 13:43:05;;;;;;;4.68;1.48;;;29.70;94.80;;;;;;5039414;28;20397;-74
2022/10/02 13:46:10;;;;;;;3.45;1.33;;;28.80;94.70;;;;;;5040798;28;20037;-74
2022/10/02 13:48:39;;;;;;;6.13;2.10;;;29.00;94.40;;;;;;5036650;28;20179;-75
2022/10/02 13:51:11;;;;;;;3.83;1.63;;;29.60;93.70;;;;;;5064650;28;20038;-75
2022/10/02 13:53:49;;;;;;;4.75;2.08;;;28.90;93.40;;;;;;5050256;28;20519;-75
2022/10/02 13:56:25;;;;;;;6.47;2.15;;;29.70;93.00;;;;;;5067343;28;20056;-76
2022/10/02 13:59:07;;;;;;;3.28;1.88;;;30.20;92.80;;;;;;5060110;28;20029;-75
2022/10/02 14:01:41;;;;;;;3.97;1.50;;;30.50;92.40;;;;;;5061994;28;20033;-76
2022/10/02 14:04:12;;;;;;;4.68;1.63;;;30.60;92.10;;;;;;5060792;28;20475;-75
2022/10/02 14:06:49;;;;;;;5.03;1.80;;;29.40;92.50;;;;;;5072406;28;20420;-74
2022/10/02 14:09:49;;;;;;;3.55;1.73;;;30.00;92.50;;;;;;5064957;28;20028;-75
2022/10/02 14:12:26;;;;;;;3.03;1.33;;;30.00;92.50;;;;;;5058214;28;20101;-74
2022/10/02 14:15:32;;;;;;;3.45;1.35;;;30.10;92.60;;;;;;5059849;28;20117;-75
2022/10/02 14:18:25;;;;;;;8.82;3.05;;;30.30;92.50;;;;;;5037072;28;20905;-75
2022/10/02 14:21:16;;;;;;;3.70;1.75;;;30.40;92.30;;;;;;5045642;28;20377;-74
2022/10/02 14:24:02;;;;;;;4.55;1.65;;;29.40;92.70;;;;;;5055650;28;20040;-75